createdAt,value
2019-03-05T00:01:52.219Z,4.50
2019-03-05T00:04:21.500Z,4.40
2019-03-05T00:06:51.035Z,4.40
2019-03-05T00:09:27.133Z,4.50
2019-03-05T00:11:57.519Z,4.40
2019-03-05T00:14:27.022Z,4.30
2019-03-05T00:16:56.290Z,4.30
2019-03-05T00:19:25.837Z,4.20
2019-03-05T00:21:55.163Z,4.20
2019-03-05T00:24:50.418Z,4.20
2019-03-05T00:27:23.117Z,4.20
2019-03-05T00:30:30.854Z,4.10
2019-03-05T00:33:13.928Z,4.20
2019-03-05T00:36:07.981Z,4.30
2019-03-05T00:39:15.118Z,4.30
2019-03-05T00:42:18.795Z,4.30
2019-03-05T00:45:25.020Z,4.30
2019-03-05T00:48:47.124Z,4.40
2019-03-05T00:51:55.420Z,4.50
2019-03-05T00:54:56.288Z,4.30
2019-03-05T00:57:53.003Z,4.30
2019-03-05T01:01:09.075Z,4.30
2019-03-05T01:04:22.152Z,4.30
2019-03-05T01:06:51.527Z,4.20
2019-03-05T01:09:22.655Z,4.00
2019-03-05T01:11:51.988Z,4.00
2019-03-05T01:14:21.714Z,3.90
2019-03-05T01:16:51.259Z,3.90
2019-03-05T01:19:20.592Z,3.90
2019-03-05T01:21:49.905Z,3.90
2019-03-05T01:24:19.281Z,3.90
2019-03-05T01:26:48.645Z,3.90
2019-03-05T01:29:17.916Z,3.80
2019-03-05T01:32:09.140Z,3.80
2019-03-05T01:34:46.221Z,3.80
2019-03-05T01:37:15.550Z,3.80
2019-03-05T01:39:56.626Z,3.80
2019-03-05T01:42:25.913Z,3.70
2019-03-05T01:44:55.250Z,3.70
2019-03-05T01:47:24.548Z,3.70
2019-03-05T01:49:54.054Z,3.70
2019-03-05T01:52:23.352Z,3.70
2019-03-05T01:54:52.674Z,3.70
2019-03-05T01:57:21.918Z,3.70
2019-03-05T01:59:51.386Z,3.60
2019-03-05T02:02:20.676Z,3.60
2019-03-05T02:04:49.980Z,3.50
2019-03-05T02:07:19.288Z,3.40
2019-03-05T02:09:48.523Z,3.40
2019-03-05T02:12:17.800Z,3.40
2019-03-05T02:14:47.101Z,3.40
2019-03-05T02:17:16.423Z,3.40
2019-03-05T02:19:49.793Z,3.40
2019-03-05T02:22:45.879Z,3.30
2019-03-05T02:25:25.313Z,3.30
2019-03-05T02:27:58.811Z,3.30
2019-03-05T02:30:35.362Z,3.30
2019-03-05T02:33:15.933Z,3.30
2019-03-05T02:36:15.682Z,3.30
2019-03-05T02:39:13.429Z,3.20
2019-03-05T02:42:07.802Z,3.10
2019-03-05T02:45:00.797Z,3.10
2019-03-05T02:48:15.761Z,3.10
2019-03-05T02:51:19.558Z,3.00
2019-03-05T02:54:35.280Z,2.90
2019-03-05T02:57:12.036Z,2.90
2019-03-05T02:59:41.345Z,2.90
2019-03-05T03:02:41.447Z,2.80
2019-03-05T03:05:18.587Z,2.70
2019-03-05T03:07:47.859Z,2.70
2019-03-05T03:10:21.760Z,2.70
2019-03-05T03:12:51.077Z,2.70
2019-03-05T03:15:20.500Z,2.70
2019-03-05T03:17:50.235Z,2.70
2019-03-05T03:20:20.533Z,2.70
2019-03-05T03:22:49.798Z,2.70
2019-03-05T03:25:23.045Z,2.80
2019-03-05T03:27:52.422Z,2.80
2019-03-05T03:30:23.055Z,2.90
2019-03-05T03:32:52.345Z,2.90
2019-03-05T03:35:21.638Z,2.90
2019-03-05T03:37:50.944Z,3.00
2019-03-05T03:40:21.714Z,3.00
2019-03-05T03:42:51.026Z,3.00
2019-03-05T03:45:22.154Z,3.10
2019-03-05T03:47:51.409Z,3.10
2019-03-05T03:50:20.654Z,3.20
2019-03-05T03:52:50.004Z,3.40
2019-03-05T03:55:19.296Z,3.40
2019-03-05T03:57:48.538Z,3.50
2019-03-05T04:00:24.688Z,3.60
2019-03-05T04:02:54.596Z,3.60
2019-03-05T04:05:23.905Z,3.60
2019-03-05T04:07:53.185Z,3.60
2019-03-05T04:10:22.447Z,3.70
2019-03-05T04:12:51.770Z,3.70
2019-03-05T04:15:21.589Z,3.80
2019-03-05T04:17:50.933Z,3.80
2019-03-05T04:20:27.088Z,3.80
2019-03-05T04:22:56.387Z,3.80
2019-03-05T04:25:25.795Z,3.80
2019-03-05T04:27:55.188Z,3.90
2019-03-05T04:30:24.442Z,3.90
2019-03-05T04:32:53.713Z,3.90
2019-03-05T04:35:22.955Z,4.00
2019-03-05T04:37:52.214Z,4.00
2019-03-05T04:40:21.557Z,4.00
2019-03-05T04:42:50.816Z,4.10
2019-03-05T04:46:06.884Z,4.10
2019-03-05T04:48:36.496Z,4.20
2019-03-05T04:51:29.276Z,4.30
2019-03-05T04:53:58.570Z,4.50
2019-03-05T04:56:27.840Z,4.60
2019-03-05T04:58:57.109Z,4.60
2019-03-05T05:01:26.400Z,4.70
2019-03-05T05:03:55.659Z,4.70
2019-03-05T05:06:24.908Z,4.80
2019-03-05T05:08:54.233Z,4.90
2019-03-05T05:11:23.492Z,4.90
2019-03-05T05:13:52.779Z,4.90
2019-03-05T05:16:22.048Z,4.90
2019-03-05T05:18:51.323Z,5.00
2019-03-05T05:21:20.585Z,5.00
2019-03-05T05:23:49.817Z,5.00
2019-03-05T05:26:19.115Z,5.00
2019-03-05T05:28:48.416Z,5.00
2019-03-05T05:31:17.665Z,5.00
2019-03-05T05:33:46.949Z,5.00
2019-03-05T05:36:16.248Z,5.00
2019-03-05T05:38:45.508Z,5.00
2019-03-05T05:41:14.772Z,5.00
2019-03-05T05:43:44.000Z,4.90
2019-03-05T05:46:13.295Z,5.00
2019-03-05T05:48:42.561Z,4.90
2019-03-05T05:51:11.839Z,4.90
2019-03-05T05:53:41.130Z,4.90
2019-03-05T05:56:10.393Z,5.00
2019-03-05T05:58:39.653Z,4.90
2019-03-05T06:01:11.883Z,5.00
2019-03-05T06:03:41.165Z,5.00
2019-03-05T06:06:10.448Z,5.00
2019-03-05T06:08:39.721Z,4.90
2019-03-05T06:11:08.969Z,4.90
2019-03-05T06:13:38.245Z,4.90
2019-03-05T06:16:07.504Z,4.90
2019-03-05T06:18:36.791Z,4.90
2019-03-05T06:21:06.061Z,4.80
2019-03-05T06:23:35.365Z,4.80
2019-03-05T06:26:04.679Z,4.80
2019-03-05T06:28:33.920Z,4.80
2019-03-05T06:31:03.173Z,4.80
2019-03-05T06:33:32.449Z,4.80
2019-03-05T06:36:01.733Z,4.80
2019-03-05T06:38:30.985Z,4.60
2019-03-05T06:41:00.232Z,4.50
2019-03-05T06:43:29.496Z,4.50
2019-03-05T06:45:58.750Z,4.50
2019-03-05T06:48:28.104Z,4.50
2019-03-05T06:50:59.807Z,4.40
2019-03-05T06:53:29.838Z,4.30
2019-03-05T06:56:01.287Z,4.30
2019-03-05T06:58:34.454Z,4.40
2019-03-05T07:01:04.366Z,4.40
2019-03-05T07:03:37.047Z,4.40
2019-03-05T07:06:42.009Z,4.30
2019-03-05T07:12:39.331Z,4.40
2019-03-05T07:15:35.517Z,4.40
2019-03-05T07:18:32.260Z,4.50
2019-03-05T07:21:51.874Z,4.50
2019-03-05T07:24:47.080Z,4.50
2019-03-05T07:27:22.844Z,4.60
2019-03-05T07:29:55.684Z,4.70
2019-03-05T07:32:25.163Z,4.80
2019-03-05T07:35:04.286Z,4.80
2019-03-05T07:37:36.999Z,4.90
2019-03-05T07:40:07.633Z,5.00
2019-03-05T07:42:37.135Z,5.00
2019-03-05T07:45:06.866Z,5.00
2019-03-05T07:47:36.341Z,5.80
2019-03-05T07:50:06.367Z,6.90
2019-03-05T07:52:36.035Z,7.60
2019-03-05T07:55:13.570Z,8.40
2019-03-05T07:57:37.144Z,9.20
2019-03-05T08:00:08.605Z,10.10
2019-03-05T08:02:37.988Z,10.00
2019-03-05T08:05:08.099Z,10.60
2019-03-05T08:07:37.537Z,12.00
2019-03-05T08:10:14.516Z,11.80
2019-03-05T08:13:33.816Z,12.40
2019-03-05T08:16:24.775Z,11.40
2019-03-05T08:18:58.568Z,13.00
2019-03-05T08:21:28.217Z,11.90
2019-03-05T08:23:57.520Z,11.10
2019-03-05T08:26:27.293Z,10.30
2019-03-05T08:28:56.827Z,9.80
2019-03-05T08:31:26.717Z,9.80
2019-03-05T08:34:00.681Z,8.30
2019-03-05T08:36:30.746Z,8.60
2019-03-05T08:39:01.707Z,8.60
2019-03-05T08:41:31.396Z,9.20
2019-03-05T08:44:00.959Z,9.00
2019-03-05T08:46:30.916Z,9.40
2019-03-05T08:49:00.524Z,9.80
2019-03-05T08:51:35.046Z,10.30
2019-03-05T08:54:04.654Z,10.30
2019-03-05T08:56:34.363Z,10.40
2019-03-05T08:59:03.971Z,10.10
2019-03-05T09:01:33.526Z,11.30
2019-03-05T09:04:02.977Z,11.70
2019-03-05T09:06:32.727Z,10.70
2019-03-05T09:09:02.807Z,10.20
2019-03-05T09:11:32.204Z,9.70
2019-03-05T09:14:01.717Z,9.70
2019-03-05T09:16:31.199Z,10.30
2019-03-05T09:19:00.522Z,10.30
2019-03-05T09:21:29.807Z,9.70
2019-03-05T09:23:59.154Z,9.40
2019-03-05T09:26:28.443Z,9.40
2019-03-05T09:28:57.751Z,8.90
2019-03-05T09:31:27.103Z,8.90
2019-03-05T09:33:56.388Z,9.20
2019-03-05T09:36:25.688Z,10.00
2019-03-05T09:38:55.000Z,9.80
2019-03-05T09:41:24.431Z,10.10
2019-03-05T09:43:53.710Z,10.80
2019-03-05T09:46:23.037Z,11.30
2019-03-05T09:48:52.480Z,11.40
2019-03-05T09:51:21.727Z,12.20
2019-03-05T09:53:50.999Z,11.80
2019-03-05T09:56:20.560Z,12.00
2019-03-05T09:58:49.817Z,12.80
2019-03-05T10:01:19.354Z,12.60
2019-03-05T10:03:48.674Z,13.30
2019-03-05T10:06:17.936Z,13.10
2019-03-05T10:08:47.377Z,14.30
2019-03-05T10:11:16.719Z,13.70
2019-03-05T10:13:46.013Z,15.30
2019-03-05T10:16:15.406Z,14.90
2019-03-05T10:18:44.633Z,13.50
2019-03-05T10:21:13.904Z,14.30
2019-03-05T10:23:43.174Z,14.50
2019-03-05T10:26:12.421Z,14.50
2019-03-05T10:28:41.976Z,13.70
2019-03-05T10:31:11.268Z,13.10
2019-03-05T10:33:40.550Z,12.60
2019-03-05T10:36:09.810Z,13.20
2019-03-05T10:38:39.077Z,14.50
2019-03-05T10:41:08.341Z,15.20
2019-03-05T10:43:37.609Z,14.00
2019-03-05T10:46:06.878Z,15.20
2019-03-05T10:48:36.170Z,15.00
2019-03-05T10:51:05.489Z,15.90
2019-03-05T10:53:34.777Z,15.50
2019-03-05T10:56:04.055Z,16.60
2019-03-05T10:58:34.490Z,16.70
2019-03-05T11:01:05.489Z,17.20
2019-03-05T11:03:34.745Z,17.10
2019-03-05T11:06:04.205Z,16.40
2019-03-05T11:08:33.508Z,15.70
2019-03-05T11:11:12.970Z,16.50
2019-03-05T11:13:33.621Z,14.50
2019-03-05T11:16:02.940Z,15.30
2019-03-05T11:18:32.167Z,16.80
2019-03-05T11:21:01.421Z,16.50
2019-03-05T11:23:30.678Z,16.50
2019-03-05T11:25:59.928Z,15.00
2019-03-05T11:28:29.197Z,14.90
2019-03-05T11:30:58.617Z,16.30
2019-03-05T11:33:27.869Z,16.40
2019-03-05T11:35:57.153Z,16.30
2019-03-05T11:38:26.421Z,15.90
2019-03-05T11:40:55.681Z,14.40
2019-03-05T11:43:24.956Z,14.30
2019-03-05T11:45:54.266Z,14.40
2019-03-05T11:48:23.494Z,15.10
2019-03-05T11:50:52.805Z,15.20
2019-03-05T11:53:22.020Z,15.90
2019-03-05T11:55:51.272Z,15.00
2019-03-05T11:58:20.590Z,15.10
2019-03-05T12:01:08.964Z,14.80
2019-03-05T12:03:38.220Z,13.90
2019-03-05T12:06:07.513Z,13.10
2019-03-05T12:08:36.796Z,13.70
2019-03-05T12:11:06.128Z,14.00
2019-03-05T12:13:35.392Z,13.20
2019-03-05T12:16:08.867Z,13.00
2019-03-05T12:18:38.145Z,13.50
2019-03-05T12:21:07.421Z,13.10
2019-03-05T12:23:36.704Z,12.90
2019-03-05T12:26:06.030Z,13.10
2019-03-05T12:28:35.199Z,13.10
2019-03-05T12:31:04.594Z,13.70
2019-03-05T12:33:33.868Z,13.10
2019-03-05T12:36:03.160Z,12.60
2019-03-05T12:38:32.481Z,12.40
2019-03-05T12:41:01.722Z,12.40
2019-03-05T12:43:31.018Z,12.90
2019-03-05T12:46:00.317Z,12.60
2019-03-05T12:48:39.635Z,12.30
2019-03-05T12:51:00.558Z,12.30
2019-03-05T12:53:29.912Z,11.80
2019-03-05T12:55:59.191Z,12.50
2019-03-05T12:58:28.492Z,11.90
2019-03-05T13:00:57.820Z,11.80
2019-03-05T13:03:27.093Z,12.30
2019-03-05T13:05:56.649Z,12.70
2019-03-05T13:08:28.490Z,12.40
2019-03-05T13:10:56.876Z,12.50
2019-03-05T13:13:32.930Z,12.00
2019-03-05T13:16:02.219Z,11.90
2019-03-05T13:18:34.556Z,11.70
2019-03-05T13:21:07.566Z,12.10
2019-03-05T13:23:37.549Z,12.10
2019-03-05T13:26:07.450Z,12.30
2019-03-05T13:28:40.620Z,12.30
2019-03-05T13:31:08.649Z,12.10
2019-03-05T13:33:41.845Z,12.00
2019-03-05T13:36:12.141Z,12.20
2019-03-05T13:38:41.720Z,12.40
2019-03-05T13:41:12.219Z,11.90
2019-03-05T13:43:41.922Z,12.00
2019-03-05T13:46:11.193Z,12.00
2019-03-05T13:49:23.720Z,11.70
2019-03-05T13:52:22.580Z,11.40
2019-03-05T13:55:31.666Z,11.60
2019-03-05T13:58:40.644Z,11.50
2019-03-05T14:01:10.348Z,11.70
2019-03-05T14:03:53.819Z,11.60
2019-03-05T14:06:50.366Z,12.10
2019-03-05T14:09:21.373Z,12.80
2019-03-05T14:11:51.780Z,12.60
2019-03-05T14:14:31.494Z,12.80
2019-03-05T14:17:18.076Z,12.70
2019-03-05T14:19:47.365Z,13.20
2019-03-05T14:22:17.060Z,13.10
2019-03-05T14:24:46.653Z,12.70
2019-03-05T14:27:16.169Z,12.50
2019-03-05T14:29:45.678Z,12.70
2019-03-05T14:32:15.182Z,12.50
2019-03-05T14:34:52.096Z,12.50
2019-03-05T14:37:21.497Z,12.40
2019-03-05T14:39:51.003Z,12.70
2019-03-05T14:42:20.491Z,12.00
2019-03-05T14:44:53.052Z,12.10
2019-03-05T14:47:22.556Z,11.90
2019-03-05T14:49:52.166Z,11.70
2019-03-05T14:52:21.826Z,11.90
2019-03-05T14:54:52.306Z,11.30
2019-03-05T14:57:21.777Z,11.40
2019-03-05T14:59:51.857Z,11.30
2019-03-05T15:02:40.460Z,11.30
2019-03-05T15:05:11.085Z,11.00
2019-03-05T15:07:40.846Z,10.70
2019-03-05T15:10:10.312Z,10.40
2019-03-05T15:12:40.003Z,10.40
2019-03-05T15:15:18.390Z,10.50
2019-03-05T15:17:57.096Z,10.40
2019-03-05T15:20:26.948Z,9.90
2019-03-05T15:22:56.775Z,9.80
2019-03-05T15:25:26.568Z,9.60
2019-03-05T15:27:56.607Z,9.60
2019-03-05T15:30:28.936Z,9.60
2019-03-05T15:32:59.579Z,9.60
2019-03-05T15:35:38.417Z,9.70
2019-03-05T15:38:08.044Z,9.50
2019-03-05T15:40:38.037Z,9.50
2019-03-05T15:43:09.111Z,9.40
2019-03-05T15:45:41.634Z,9.40
2019-03-05T15:48:11.451Z,9.10
2019-03-05T15:50:41.298Z,9.10
2019-03-05T15:53:11.084Z,9.10
2019-03-05T15:55:40.893Z,8.90
2019-03-05T15:58:48.486Z,8.80
2019-03-05T16:01:22.377Z,8.90
2019-03-05T16:03:49.467Z,8.80
2019-03-05T16:09:15.990Z,8.80
2019-03-05T16:11:46.039Z,8.70
2019-03-05T16:14:15.831Z,8.80
2019-03-05T16:16:51.766Z,8.80
2019-03-05T16:19:27.254Z,8.60
2019-03-05T16:21:57.032Z,8.70
2019-03-05T16:24:26.957Z,8.60
2019-03-05T16:26:57.009Z,8.60
2019-03-05T16:29:27.351Z,8.30
2019-03-05T16:35:19.555Z,8.20
2019-03-05T16:37:58.480Z,8.20
2019-03-05T16:40:45.819Z,8.10
2019-03-05T16:43:36.442Z,8.00
2019-03-05T16:46:24.776Z,8.00
2019-03-05T16:49:20.006Z,7.90
2019-03-05T16:52:11.627Z,7.90
2019-03-05T16:54:48.498Z,7.80
2019-03-05T16:57:43.230Z,7.70
2019-03-05T17:00:21.777Z,7.70
2019-03-05T17:03:11.888Z,7.80
2019-03-05T17:06:00.414Z,7.70
2019-03-05T17:08:53.922Z,7.70
2019-03-05T17:11:48.185Z,7.60
2019-03-05T17:14:17.699Z,7.50
2019-03-05T17:16:47.342Z,7.50
2019-03-05T17:19:17.501Z,7.50
2019-03-05T17:21:46.981Z,7.40
2019-03-05T17:24:51.071Z,7.40
2019-03-05T17:27:20.859Z,7.20
2019-03-05T17:29:50.464Z,7.20
2019-03-05T17:32:20.583Z,7.20
2019-03-05T17:38:11.921Z,7.20
2019-03-05T17:40:43.974Z,7.00
2019-03-05T17:43:15.169Z,7.00
2019-03-05T17:45:44.926Z,7.00
2019-03-05T17:48:15.209Z,7.00
2019-03-05T17:53:20.976Z,7.00
2019-03-05T17:55:58.397Z,7.00
2019-03-05T17:58:28.009Z,7.00
2019-03-05T18:00:57.846Z,6.90
2019-03-05T18:03:27.350Z,6.90
2019-03-05T18:05:56.922Z,6.90
2019-03-05T18:08:26.329Z,6.90
2019-03-05T18:10:55.804Z,6.90
2019-03-05T18:13:25.203Z,7.00
2019-03-05T18:15:54.789Z,7.00
2019-03-05T18:18:24.633Z,7.00
2019-03-05T18:20:54.188Z,7.00
2019-03-05T18:23:23.861Z,7.10
2019-03-05T18:25:53.441Z,7.20
2019-03-05T18:28:22.977Z,7.20
2019-03-05T18:30:52.894Z,7.20
2019-03-05T18:33:22.467Z,7.20
2019-03-05T18:35:52.106Z,7.30
2019-03-05T18:38:21.564Z,7.30
2019-03-05T18:40:51.642Z,7.30
2019-03-05T18:43:39.254Z,7.40
2019-03-05T18:46:12.207Z,7.40
2019-03-05T18:48:41.785Z,7.40
2019-03-05T18:51:11.400Z,7.30
2019-03-05T18:53:41.057Z,7.40
2019-03-05T18:56:10.584Z,7.40
2019-03-05T18:59:02.162Z,7.40
2019-03-05T19:01:31.973Z,7.40
2019-03-05T19:04:01.876Z,7.50
2019-03-05T19:06:31.457Z,7.50
2019-03-05T19:09:01.411Z,7.50
2019-03-05T19:11:31.069Z,7.60
2019-03-05T19:14:00.664Z,7.60
2019-03-05T19:16:30.241Z,7.60
2019-03-05T19:18:59.813Z,7.70
2019-03-05T19:21:29.394Z,7.70
2019-03-05T19:23:59.593Z,7.70
2019-03-05T19:26:29.816Z,7.80
2019-03-05T19:28:59.619Z,7.80
2019-03-05T19:31:29.223Z,7.70
2019-03-05T19:33:59.147Z,7.80
2019-03-05T19:36:28.968Z,7.80
2019-03-05T19:38:58.935Z,7.80
2019-03-05T19:41:28.277Z,7.90
2019-03-05T19:43:57.949Z,7.90
2019-03-05T19:46:27.281Z,7.90
2019-03-05T19:48:57.150Z,7.80
2019-03-05T19:51:26.358Z,7.70
2019-03-05T19:53:55.788Z,7.60
2019-03-05T19:56:25.316Z,7.70
2019-03-05T19:58:54.773Z,7.60
2019-03-05T20:01:34.129Z,7.60
2019-03-05T20:04:11.699Z,7.50
2019-03-05T20:06:45.634Z,7.40
2019-03-05T20:09:23.262Z,7.20
2019-03-05T20:11:52.563Z,7.20
2019-03-05T20:14:22.026Z,7.00
2019-03-05T20:16:51.320Z,6.80
2019-03-05T20:19:20.649Z,6.80
2019-03-05T20:21:50.056Z,6.80
2019-03-05T20:24:19.377Z,6.80
2019-03-05T20:26:53.200Z,6.90
2019-03-05T20:29:22.519Z,6.80
2019-03-05T20:31:51.879Z,6.80
2019-03-05T20:34:21.138Z,6.80
2019-03-05T20:36:50.413Z,6.60
2019-03-05T20:39:19.813Z,6.70
2019-03-05T20:41:49.191Z,6.60
2019-03-05T20:44:18.486Z,6.60
2019-03-05T20:46:47.737Z,6.60
2019-03-05T20:49:17.042Z,6.50
2019-03-05T20:51:46.325Z,6.40
2019-03-05T20:54:15.871Z,6.40
2019-03-05T20:56:45.241Z,6.50
2019-03-05T20:59:14.598Z,6.50
2019-03-05T21:01:44.131Z,6.40
2019-03-05T21:04:14.100Z,6.40
2019-03-05T21:06:43.332Z,6.20
2019-03-05T21:09:22.085Z,6.20
2019-03-05T21:11:51.726Z,6.20
2019-03-05T21:14:21.211Z,6.20
2019-03-05T21:16:50.824Z,6.20
2019-03-05T21:19:20.215Z,6.20
2019-03-05T21:21:49.562Z,6.20
2019-03-05T21:24:18.979Z,6.20
2019-03-05T21:26:48.809Z,6.10
2019-03-05T21:29:18.387Z,6.10
2019-03-05T21:31:49.911Z,6.10
2019-03-05T21:34:19.661Z,6.00
2019-03-05T21:36:49.154Z,6.00
2019-03-05T21:39:19.815Z,6.00
2019-03-05T21:41:49.142Z,6.00
2019-03-05T21:44:18.450Z,6.00
2019-03-05T21:46:47.818Z,5.90
2019-03-05T21:49:17.184Z,5.90
2019-03-05T21:51:46.802Z,5.90
2019-03-05T21:54:16.615Z,5.80
2019-03-05T21:56:46.015Z,5.90
2019-03-05T21:59:15.460Z,5.80
2019-03-05T22:01:44.947Z,5.90
2019-03-05T22:04:14.488Z,5.90
2019-03-05T22:06:43.822Z,5.90
2019-03-05T22:09:13.273Z,5.80
2019-03-05T22:11:43.087Z,5.70
2019-03-05T22:14:12.498Z,5.70
2019-03-05T22:16:42.111Z,5.70
2019-03-05T22:19:11.750Z,5.80
2019-03-05T22:21:41.330Z,5.70
2019-03-05T22:24:11.111Z,5.70
2019-03-05T22:26:40.774Z,5.70
2019-03-05T22:29:10.326Z,5.70
2019-03-05T22:31:39.955Z,5.70
2019-03-05T22:34:09.574Z,5.60
2019-03-05T22:36:39.109Z,5.60
2019-03-05T22:39:08.493Z,5.50
2019-03-05T22:41:38.427Z,5.60
2019-03-05T22:44:07.868Z,5.50
2019-03-05T22:46:37.509Z,5.50
2019-03-05T22:49:06.879Z,5.50
2019-03-05T22:51:36.223Z,5.50
2019-03-05T22:54:05.652Z,5.50
2019-03-05T22:56:35.912Z,5.50
2019-03-05T22:59:05.504Z,5.50
2019-03-05T23:01:38.219Z,5.50
2019-03-05T23:04:08.558Z,5.40
2019-03-05T23:06:38.677Z,5.40
2019-03-05T23:09:13.489Z,5.40
2019-03-05T23:11:43.240Z,5.40
2019-03-05T23:14:12.805Z,5.30
2019-03-05T23:16:42.472Z,5.30
2019-03-05T23:19:12.140Z,5.30
2019-03-05T23:21:41.899Z,5.30
2019-03-05T23:24:11.847Z,5.30
2019-03-05T23:26:41.640Z,5.20
2019-03-05T23:29:10.893Z,5.20
2019-03-05T23:31:40.623Z,5.20
2019-03-05T23:34:18.054Z,5.20
2019-03-05T23:36:41.457Z,5.20
2019-03-05T23:39:14.836Z,5.10
2019-03-05T23:41:44.440Z,5.10
2019-03-05T23:44:14.059Z,5.00
2019-03-05T23:46:43.588Z,5.00
2019-03-05T23:49:12.910Z,4.90
2019-03-05T23:51:42.182Z,4.80
2019-03-05T23:54:11.505Z,4.80
2019-03-05T23:56:40.746Z,4.70
2019-03-05T23:59:10.033Z,4.70
